createdAt,value
2023-02-03T00:00:31.142Z,3.00
2023-02-03T00:02:58.589Z,4.10
2023-02-03T00:05:26.193Z,3.60
2023-02-03T00:07:53.850Z,3.87
2023-02-03T00:10:21.536Z,3.50
2023-02-03T00:12:49.468Z,3.33
2023-02-03T00:15:18.363Z,3.57
2023-02-03T00:17:45.653Z,4.20
2023-02-03T00:20:12.968Z,3.70
2023-02-03T00:22:40.235Z,3.70
2023-02-03T00:25:07.917Z,3.80
2023-02-03T00:27:35.232Z,3.30
2023-02-03T00:30:02.644Z,3.60
2023-02-03T00:32:30.972Z,3.93
2023-02-03T00:34:58.318Z,3.43
2023-02-03T00:37:25.600Z,3.30
2023-02-03T00:39:53.161Z,3.17
2023-02-03T00:42:20.441Z,3.90
2023-02-03T00:44:47.738Z,3.17
2023-02-03T00:47:15.013Z,3.60
2023-02-03T00:49:43.015Z,4.83
2023-02-03T00:52:10.303Z,2.70
2023-02-03T00:54:37.592Z,3.17
2023-02-03T00:57:04.895Z,3.17
2023-02-03T00:59:32.154Z,3.50
2023-02-03T01:01:59.514Z,3.10
2023-02-03T01:04:26.990Z,3.03
2023-02-03T01:06:56.835Z,2.63
2023-02-03T01:09:24.153Z,3.40
2023-02-03T01:11:51.604Z,4.50
2023-02-03T01:14:19.131Z,2.47
2023-02-03T01:16:46.447Z,3.00
2023-02-03T01:19:14.540Z,2.70
2023-02-03T01:21:41.863Z,2.47
2023-02-03T01:24:10.186Z,2.83
2023-02-03T01:26:37.503Z,2.57
2023-02-03T01:29:04.828Z,2.20
2023-02-03T01:31:34.671Z,2.23
2023-02-03T01:34:02.478Z,2.37
2023-02-03T01:36:31.617Z,2.23
2023-02-03T01:38:59.005Z,2.07
2023-02-03T01:41:29.266Z,2.20
2023-02-03T01:43:58.629Z,2.20
2023-02-03T01:46:29.924Z,3.03
2023-02-03T01:49:03.958Z,4.30
2023-02-03T01:51:31.805Z,2.23
2023-02-03T01:53:59.710Z,2.40
2023-02-03T01:56:32.347Z,2.53
2023-02-03T01:59:00.257Z,2.10
2023-02-03T02:01:29.531Z,2.50
2023-02-03T02:03:59.709Z,2.70
2023-02-03T02:06:27.163Z,3.00
2023-02-03T02:08:55.737Z,2.57
2023-02-03T02:11:23.052Z,2.63
2023-02-03T02:13:53.551Z,2.20
2023-02-03T02:16:28.380Z,2.20
2023-02-03T02:19:34.302Z,2.37
2023-02-03T02:22:09.263Z,2.20
2023-02-03T02:25:02.294Z,2.07
2023-02-03T02:27:58.124Z,1.83
2023-02-03T02:30:48.504Z,2.23
2023-02-03T02:33:27.553Z,2.20
2023-02-03T02:36:03.478Z,1.90
2023-02-03T02:38:41.171Z,3.13
2023-02-03T02:41:14.377Z,2.43
2023-02-03T02:43:44.927Z,2.10
2023-02-03T02:46:15.490Z,2.20
2023-02-03T02:48:49.942Z,2.30
2023-02-03T02:51:18.314Z,2.53
2023-02-03T02:53:49.754Z,2.07
2023-02-03T02:56:18.676Z,1.80
2023-02-03T02:58:49.253Z,1.90
2023-02-03T03:01:17.358Z,2.73
2023-02-03T03:03:46.087Z,1.83
2023-02-03T03:06:19.282Z,2.00
2023-02-03T03:08:51.203Z,2.40
2023-02-03T03:11:18.913Z,1.87
2023-02-03T03:13:50.604Z,2.30
2023-02-03T03:16:21.786Z,2.50
2023-02-03T03:18:52.700Z,2.50
2023-02-03T03:21:25.435Z,2.63
2023-02-03T03:23:57.306Z,2.93
2023-02-03T03:26:30.110Z,4.57
2023-02-03T03:29:05.500Z,3.00
2023-02-03T03:31:32.974Z,4.37
2023-02-03T03:34:01.567Z,3.37
2023-02-03T03:36:32.542Z,3.40
2023-02-03T03:39:05.423Z,5.43
2023-02-03T03:41:41.107Z,4.10
2023-02-03T03:44:14.281Z,4.20
2023-02-03T03:46:46.429Z,4.50
2023-02-03T03:49:15.818Z,3.87
2023-02-03T03:51:47.638Z,4.30
2023-02-03T03:54:18.278Z,5.10
2023-02-03T03:56:50.786Z,4.93
2023-02-03T03:59:21.293Z,4.50
2023-02-03T04:01:50.485Z,4.60
2023-02-03T04:04:20.005Z,4.10
2023-02-03T04:06:47.293Z,5.77
2023-02-03T04:09:14.582Z,4.03
2023-02-03T04:12:00.036Z,5.30
2023-02-03T04:14:29.286Z,5.20
2023-02-03T04:16:56.661Z,4.60
2023-02-03T04:19:24.825Z,5.30
2023-02-03T04:21:52.413Z,4.03
2023-02-03T04:24:19.930Z,5.53
2023-02-03T04:26:47.571Z,2.67
2023-02-03T04:29:14.854Z,4.33
2023-02-03T04:31:42.180Z,4.10
2023-02-03T04:34:09.568Z,5.10
2023-02-03T04:36:37.537Z,5.23
2023-02-03T04:39:04.885Z,5.03
2023-02-03T04:41:32.236Z,4.70
2023-02-03T04:43:59.587Z,5.20
2023-02-03T04:46:26.848Z,4.43
2023-02-03T04:48:54.143Z,4.87
2023-02-03T04:51:21.413Z,5.33
2023-02-03T04:53:49.422Z,4.40
2023-02-03T04:56:16.724Z,6.33
2023-02-03T04:58:43.967Z,5.97
2023-02-03T05:01:11.454Z,4.57
2023-02-03T05:03:38.844Z,5.00
2023-02-03T05:06:06.437Z,6.10
2023-02-03T05:08:33.705Z,5.43
2023-02-03T05:11:02.389Z,5.80
2023-02-03T05:13:29.807Z,4.20
2023-02-03T05:15:57.100Z,5.43
2023-02-03T05:18:24.343Z,5.37
2023-02-03T05:20:51.698Z,5.70
2023-02-03T05:23:19.018Z,4.23
2023-02-03T05:25:46.334Z,4.30
2023-02-03T05:28:14.293Z,6.53
2023-02-03T05:30:41.764Z,7.03
2023-02-03T05:33:09.069Z,10.70
2023-02-03T05:35:36.535Z,6.10
2023-02-03T05:38:04.123Z,7.27
2023-02-03T05:40:49.500Z,7.10
2023-02-03T05:43:17.605Z,6.90
2023-02-03T05:45:44.977Z,4.30
2023-02-03T05:48:12.741Z,6.13
2023-02-03T05:50:40.082Z,6.60
2023-02-03T05:53:08.106Z,7.77
2023-02-03T05:55:35.978Z,10.80
2023-02-03T05:58:03.526Z,12.60
2023-02-03T06:00:32.061Z,9.60
2023-02-03T06:03:01.756Z,8.40
2023-02-03T06:05:29.614Z,7.77
2023-02-03T06:07:57.023Z,9.57
2023-02-03T06:10:24.377Z,9.60
2023-02-03T06:12:51.718Z,6.80
2023-02-03T06:15:19.090Z,7.40
2023-02-03T06:17:48.532Z,7.63
2023-02-03T06:20:17.933Z,7.63
2023-02-03T06:22:45.516Z,6.83
2023-02-03T06:25:13.602Z,8.60
2023-02-03T06:27:41.525Z,7.73
2023-02-03T06:30:10.651Z,8.70
2023-02-03T06:32:37.960Z,7.53
2023-02-03T06:35:06.359Z,6.90
2023-02-03T06:37:34.948Z,8.30
2023-02-03T06:40:03.643Z,7.83
2023-02-03T06:42:30.986Z,5.93
2023-02-03T06:44:58.288Z,7.70
2023-02-03T06:47:25.538Z,7.00
2023-02-03T06:49:52.824Z,4.83
2023-02-03T06:52:20.784Z,6.40
2023-02-03T06:54:48.047Z,7.50
2023-02-03T06:57:15.342Z,8.03
2023-02-03T06:59:42.589Z,6.10
2023-02-03T07:02:11.035Z,8.60
2023-02-03T07:04:38.602Z,8.50
2023-02-03T07:07:05.886Z,7.70
2023-02-03T07:09:33.844Z,8.63
2023-02-03T07:12:01.160Z,9.10
2023-02-03T07:14:30.074Z,5.63
2023-02-03T07:16:57.437Z,9.27
2023-02-03T07:19:24.717Z,8.00
2023-02-03T07:21:52.015Z,7.43
2023-02-03T07:24:19.377Z,8.47
2023-02-03T07:26:47.446Z,6.83
2023-02-03T07:29:14.739Z,6.30
2023-02-03T07:31:42.415Z,5.97
2023-02-03T07:34:10.024Z,7.47
2023-02-03T07:36:37.352Z,9.07
2023-02-03T07:39:04.796Z,8.63
2023-02-03T07:41:32.100Z,7.40
2023-02-03T07:44:00.134Z,19.57
2023-02-03T07:46:27.492Z,7.17
2023-02-03T07:48:54.886Z,8.60
2023-02-03T07:51:22.158Z,7.50
2023-02-03T07:53:49.469Z,3.83
2023-02-03T07:56:16.813Z,5.33
2023-02-03T07:58:44.050Z,5.30
2023-02-03T08:01:14.987Z,5.20
2023-02-03T08:03:42.695Z,5.83
2023-02-03T08:06:10.131Z,5.67
2023-02-03T08:08:37.635Z,5.97
2023-02-03T08:11:05.089Z,6.10
2023-02-03T08:13:32.335Z,2.50
2023-02-03T08:15:59.642Z,3.13
2023-02-03T08:18:27.775Z,3.40
2023-02-03T08:20:55.015Z,3.60
2023-02-03T08:23:22.380Z,3.60
2023-02-03T08:25:52.049Z,4.30
2023-02-03T08:28:19.682Z,3.13
2023-02-03T08:30:46.997Z,3.67
2023-02-03T08:33:14.406Z,3.57
2023-02-03T08:35:46.418Z,4.00
2023-02-03T08:38:13.683Z,3.17
2023-02-03T08:40:41.049Z,5.13
2023-02-03T08:43:08.347Z,6.60
2023-02-03T08:45:35.762Z,3.93
2023-02-03T08:48:03.273Z,6.10
2023-02-03T08:50:31.056Z,5.53
2023-02-03T08:52:59.268Z,7.43
2023-02-03T08:55:26.603Z,7.20
2023-02-03T08:57:53.916Z,3.40
2023-02-03T09:00:21.964Z,3.30
2023-02-03T09:02:49.197Z,3.37
2023-02-03T09:05:17.826Z,3.10
2023-02-03T09:07:45.312Z,3.60
2023-02-03T09:10:13.327Z,3.97
2023-02-03T09:12:40.760Z,4.70
2023-02-03T09:15:08.865Z,4.30
2023-02-03T09:17:36.164Z,4.43
2023-02-03T09:20:03.859Z,4.67
2023-02-03T09:22:31.162Z,4.73
2023-02-03T09:24:58.617Z,5.80
2023-02-03T09:27:26.641Z,4.10
2023-02-03T09:29:54.221Z,5.20
2023-02-03T09:32:21.486Z,6.57
2023-02-03T09:34:48.785Z,5.80
2023-02-03T09:37:16.082Z,6.70
2023-02-03T09:39:43.380Z,4.67
2023-02-03T09:42:35.362Z,7.77
2023-02-03T09:45:14.458Z,5.20
2023-02-03T09:47:43.934Z,5.73
2023-02-03T09:50:17.811Z,5.73
2023-02-03T09:52:45.533Z,4.10
2023-02-03T09:55:26.841Z,7.30
2023-02-03T09:58:02.710Z,5.20
2023-02-03T10:00:34.693Z,6.60
2023-02-03T10:03:08.043Z,9.40
2023-02-03T10:05:59.680Z,13.77
2023-02-03T10:08:50.031Z,5.97
2023-02-03T10:11:26.988Z,6.00
2023-02-03T10:14:07.013Z,6.17
2023-02-03T10:16:45.296Z,2.77
2023-02-03T10:19:20.222Z,3.73
2023-02-03T10:21:51.684Z,4.07
2023-02-03T10:24:24.336Z,4.10
2023-02-03T10:26:52.248Z,7.73
2023-02-03T10:29:32.199Z,6.47
2023-02-03T10:31:59.694Z,5.33
2023-02-03T10:34:27.346Z,3.57
2023-02-03T10:36:56.729Z,3.30
2023-02-03T10:39:39.613Z,3.10
2023-02-03T10:42:08.528Z,2.33
2023-02-03T10:44:39.861Z,2.23
2023-02-03T10:47:23.298Z,3.50
2023-02-03T10:49:52.255Z,2.50
2023-02-03T10:52:28.971Z,3.30
2023-02-03T10:54:58.492Z,2.43
2023-02-03T10:57:28.118Z,3.00
2023-02-03T11:00:06.734Z,2.30
2023-02-03T11:02:34.344Z,2.10
2023-02-03T11:05:19.203Z,1.93
2023-02-03T11:07:47.337Z,2.13
2023-02-03T11:10:34.848Z,1.70
2023-02-03T11:13:20.052Z,1.70
2023-02-03T11:15:59.805Z,1.70
2023-02-03T11:18:45.275Z,2.70
2023-02-03T11:21:15.966Z,1.97
2023-02-03T11:23:54.079Z,1.87
2023-02-03T11:26:25.068Z,1.40
2023-02-03T11:28:56.172Z,1.80
2023-02-03T11:31:26.811Z,2.40
2023-02-03T11:34:01.119Z,1.80
2023-02-03T11:36:30.353Z,2.60
2023-02-03T11:39:24.886Z,2.57
2023-02-03T11:41:52.670Z,3.87
2023-02-03T11:44:22.720Z,2.57
2023-02-03T11:46:54.061Z,1.77
2023-02-03T11:50:05.837Z,1.60
2023-02-03T11:52:57.557Z,1.80
2023-02-03T11:55:34.910Z,3.50
2023-02-03T11:58:24.040Z,2.20
2023-02-03T12:01:03.923Z,2.60
2023-02-03T12:04:06.954Z,3.57
2023-02-03T12:06:48.897Z,1.60
2023-02-03T12:09:28.354Z,3.57
2023-02-03T12:12:21.860Z,5.10
2023-02-03T12:14:59.493Z,5.20
2023-02-03T12:17:56.512Z,2.77
2023-02-03T12:20:44.134Z,1.93
2023-02-03T12:23:26.115Z,2.57
2023-02-03T12:26:10.599Z,2.47
2023-02-03T12:28:48.552Z,1.60
2023-02-03T12:31:26.788Z,1.77
2023-02-03T12:34:00.195Z,1.20
2023-02-03T12:36:35.948Z,1.70
2023-02-03T12:39:12.580Z,1.53
2023-02-03T12:41:44.284Z,1.40
2023-02-03T12:44:19.844Z,1.50
2023-02-03T12:46:52.955Z,1.40
2023-02-03T12:49:30.904Z,1.47
2023-02-03T12:52:03.802Z,1.27
2023-02-03T12:54:38.905Z,1.60
2023-02-03T12:57:15.649Z,1.57
2023-02-03T12:59:54.963Z,3.50
2023-02-03T13:02:27.676Z,2.17
2023-02-03T13:05:01.563Z,2.63
2023-02-03T13:07:38.464Z,4.67
2023-02-03T13:10:15.798Z,1.43
2023-02-03T13:12:46.327Z,3.50
2023-02-03T13:15:24.559Z,1.17
2023-02-03T13:17:58.343Z,1.60
2023-02-03T13:20:30.685Z,0.87
2023-02-03T13:22:59.033Z,1.50
2023-02-03T13:25:34.944Z,2.27
2023-02-03T13:28:14.392Z,1.93
2023-02-03T13:30:56.035Z,2.00
2023-02-03T13:33:52.754Z,3.30
2023-02-03T13:36:52.067Z,2.30
2023-02-03T13:39:40.240Z,3.00
2023-02-03T13:42:24.369Z,3.00
2023-02-03T13:44:56.877Z,3.07
2023-02-03T13:47:28.028Z,4.23
2023-02-03T13:50:00.460Z,2.23
2023-02-03T13:52:35.254Z,1.80
2023-02-03T13:55:04.835Z,2.37
2023-02-03T13:57:37.305Z,3.90
2023-02-03T14:00:26.891Z,3.70
2023-02-03T14:02:55.157Z,4.17
2023-02-03T14:05:44.275Z,2.00
2023-02-03T14:08:48.007Z,2.60
2023-02-03T14:11:45.654Z,3.70
2023-02-03T14:14:44.150Z,2.30
2023-02-03T14:18:03.134Z,2.50
2023-02-03T14:21:01.333Z,1.93
2023-02-03T14:23:46.245Z,1.43
2023-02-03T14:26:37.991Z,2.50
2023-02-03T14:29:09.143Z,1.80
2023-02-03T14:31:52.625Z,2.90
2023-02-03T14:34:27.420Z,1.83
2023-02-03T14:36:56.432Z,1.80
2023-02-03T14:39:54.625Z,2.50
2023-02-03T14:42:48.553Z,2.90
2023-02-03T14:45:41.772Z,2.43
2023-02-03T14:48:25.238Z,3.10
2023-02-03T14:51:04.012Z,2.23
2023-02-03T14:53:48.889Z,3.50
2023-02-03T14:56:26.851Z,2.00
2023-02-03T14:59:00.335Z,3.03
2023-02-03T15:02:07.408Z,2.77
2023-02-03T15:04:35.802Z,2.80
2023-02-03T15:07:03.141Z,3.30
2023-02-03T15:09:36.800Z,2.70
2023-02-03T15:12:16.110Z,2.13
2023-02-03T15:14:43.442Z,2.30
2023-02-03T15:17:20.115Z,2.80
2023-02-03T15:19:48.300Z,2.77
2023-02-03T15:22:21.526Z,2.50
2023-02-03T15:24:50.317Z,2.67
2023-02-03T15:27:25.182Z,2.97
2023-02-03T15:29:52.934Z,3.00
2023-02-03T15:32:25.831Z,1.87
2023-02-03T15:34:57.281Z,3.77
2023-02-03T15:37:31.436Z,3.30
2023-02-03T15:40:02.891Z,3.40
2023-02-03T15:42:35.658Z,2.70
2023-02-03T15:45:07.155Z,1.80
2023-02-03T15:47:38.507Z,3.33
2023-02-03T15:50:23.891Z,2.37
2023-02-03T15:52:53.767Z,2.70
2023-02-03T15:55:32.265Z,2.40
2023-02-03T15:58:00.119Z,4.10
2023-02-03T16:00:35.058Z,3.50
2023-02-03T16:03:04.886Z,4.40
2023-02-03T16:05:34.555Z,2.87
2023-02-03T16:08:28.615Z,4.10
2023-02-03T16:10:56.329Z,2.30
2023-02-03T16:13:25.605Z,2.03
2023-02-03T16:16:07.489Z,1.63
2023-02-03T16:18:36.231Z,3.10
2023-02-03T16:21:05.214Z,3.37
2023-02-03T16:23:32.756Z,2.20
2023-02-03T16:26:04.973Z,2.37
2023-02-03T16:28:50.603Z,2.03
2023-02-03T16:31:37.543Z,3.57
2023-02-03T16:34:32.290Z,2.93
2023-02-03T16:37:18.932Z,2.97
2023-02-03T16:40:05.470Z,2.90
2023-02-03T16:42:57.568Z,3.13
2023-02-03T16:45:43.881Z,3.17
2023-02-03T16:48:30.366Z,3.03
2023-02-03T16:51:02.160Z,3.07
2023-02-03T16:53:32.714Z,2.27
2023-02-03T16:56:01.944Z,2.77
2023-02-03T16:58:31.308Z,1.97
2023-02-03T17:01:08.379Z,3.50
2023-02-03T17:03:39.150Z,1.70
2023-02-03T17:06:17.802Z,2.93
2023-02-03T17:08:56.630Z,3.50
2023-02-03T17:11:26.372Z,2.53
2023-02-03T17:13:53.836Z,4.33
2023-02-03T17:16:32.821Z,2.60
2023-02-03T17:19:01.617Z,1.50
2023-02-03T17:22:05.915Z,2.87
2023-02-03T17:24:38.959Z,2.27
2023-02-03T17:27:13.764Z,3.70
2023-02-03T17:29:44.872Z,2.13
2023-02-03T17:32:19.444Z,1.80
2023-02-03T17:34:51.666Z,3.10
2023-02-03T17:37:22.530Z,2.57
2023-02-03T17:54:46.148Z,3.27
2023-02-03T17:57:16.917Z,4.53
2023-02-03T17:59:52.711Z,2.77
2023-02-03T18:02:20.829Z,2.43
2023-02-03T18:04:48.881Z,2.43
2023-02-03T18:07:16.841Z,3.30
2023-02-03T18:09:54.392Z,3.20
2023-02-03T18:12:26.685Z,2.67
2023-02-03T18:15:08.271Z,2.83
2023-02-03T18:17:42.457Z,1.87
2023-02-03T18:20:20.516Z,2.60
2023-02-03T18:22:51.974Z,3.20
2023-02-03T18:25:23.487Z,5.03
2023-02-03T18:27:54.394Z,4.63
2023-02-03T18:30:21.962Z,2.00
2023-02-03T18:32:53.677Z,2.13
2023-02-03T18:35:21.104Z,5.13
2023-02-03T18:37:48.669Z,2.37
2023-02-03T18:40:16.724Z,2.20
2023-02-03T18:42:45.841Z,1.67
2023-02-03T18:45:14.139Z,2.90
2023-02-03T18:47:41.675Z,3.33
2023-02-03T18:50:10.230Z,3.17
2023-02-03T18:52:37.506Z,2.50
2023-02-03T18:55:05.083Z,2.03
2023-02-03T18:57:37.471Z,3.27
2023-02-03T19:00:08.913Z,2.20
2023-02-03T19:05:34.670Z,2.57
2023-02-03T19:08:06.990Z,3.40
2023-02-03T19:10:36.479Z,3.33
2023-02-03T19:13:04.019Z,2.70
2023-02-03T19:15:34.362Z,3.40
2023-02-03T19:18:02.787Z,3.63
2023-02-03T19:20:33.605Z,3.30
2023-02-03T19:23:07.756Z,3.00
2023-02-03T19:25:35.981Z,2.10
2023-02-03T19:28:03.612Z,2.20
2023-02-03T19:30:32.130Z,3.73
2023-02-03T19:33:02.501Z,2.13
2023-02-03T19:35:38.409Z,2.40
2023-02-03T19:38:06.020Z,3.03
2023-02-03T19:40:33.332Z,2.20
2023-02-03T19:43:00.640Z,2.40
2023-02-03T19:45:28.210Z,2.40
2023-02-03T19:48:06.931Z,3.07
2023-02-03T19:50:36.082Z,2.30
2023-02-03T19:53:03.653Z,3.53
2023-02-03T19:55:31.310Z,3.13
2023-02-03T19:57:59.501Z,2.83
2023-02-03T20:00:27.942Z,3.47
2023-02-03T20:02:55.435Z,2.30
2023-02-03T20:05:22.683Z,2.83
2023-02-03T20:07:55.762Z,4.40
2023-02-03T20:10:25.609Z,2.73
2023-02-03T20:12:56.155Z,2.10
2023-02-03T20:15:26.196Z,3.87
2023-02-03T20:17:54.728Z,3.27
2023-02-03T20:20:29.624Z,5.00
2023-02-03T20:23:00.574Z,2.43
2023-02-03T20:25:27.919Z,3.30
2023-02-03T20:27:56.382Z,3.73
2023-02-03T20:30:30.074Z,2.67
2023-02-03T20:32:58.085Z,3.23
2023-02-03T20:35:29.887Z,3.53
2023-02-03T20:37:58.123Z,4.07
2023-02-03T20:40:28.953Z,2.90
2023-02-03T20:43:05.374Z,4.50
2023-02-03T20:45:39.558Z,3.20
2023-02-03T20:48:11.453Z,2.40
2023-02-03T20:50:42.626Z,2.63
2023-02-03T20:53:17.939Z,2.70
2023-02-03T20:55:49.403Z,3.20
2023-02-03T20:58:23.167Z,2.40
2023-02-03T21:01:00.211Z,2.80
2023-02-03T21:03:57.103Z,3.17
2023-02-03T21:06:25.555Z,2.60
2023-02-03T21:08:58.102Z,2.70
2023-02-03T21:11:28.981Z,2.80
2023-02-03T21:13:58.056Z,3.50
2023-02-03T21:16:31.364Z,2.83
2023-02-03T21:19:02.164Z,2.40
2023-02-03T21:21:34.158Z,3.30
2023-02-03T21:24:19.347Z,3.23
2023-02-03T21:26:49.617Z,3.47
2023-02-03T21:29:24.400Z,2.50
2023-02-03T21:31:53.252Z,2.63
2023-02-03T21:34:28.367Z,2.83
2023-02-03T21:36:55.765Z,3.80
2023-02-03T21:39:32.164Z,2.23
2023-02-03T21:42:39.559Z,5.30
2023-02-03T21:45:27.754Z,3.10
2023-02-03T21:47:59.520Z,3.00
2023-02-03T21:50:29.325Z,3.20
2023-02-03T21:52:57.011Z,2.57
2023-02-03T21:55:24.926Z,2.23
2023-02-03T21:57:54.951Z,3.20
2023-02-03T22:00:38.975Z,3.20
2023-02-03T22:03:07.728Z,1.70
2023-02-03T22:05:35.288Z,2.10
2023-02-03T22:08:12.552Z,3.00
2023-02-03T22:10:47.359Z,2.53
2023-02-03T22:13:15.643Z,2.67
2023-02-03T22:15:53.649Z,3.10
2023-02-03T22:18:20.895Z,3.87
2023-02-03T22:20:55.646Z,1.93
2023-02-03T22:23:22.931Z,2.30
2023-02-03T22:26:02.246Z,2.40
2023-02-03T22:28:29.568Z,2.80
2023-02-03T22:30:56.933Z,1.60
2023-02-03T22:33:24.564Z,2.30
2023-02-03T22:35:51.836Z,2.20
2023-02-03T22:38:19.075Z,2.17
2023-02-03T22:40:46.394Z,3.03
2023-02-03T22:43:14.552Z,1.77
2023-02-03T22:45:41.837Z,3.50
2023-02-03T22:48:09.217Z,3.60
2023-02-03T22:50:36.934Z,2.47
2023-02-03T22:53:05.301Z,3.03
2023-02-03T22:55:32.606Z,3.13
2023-02-03T22:57:59.899Z,2.70
2023-02-03T23:00:28.389Z,2.47
2023-02-03T23:02:55.896Z,2.00
2023-02-03T23:05:23.212Z,2.37
2023-02-03T23:07:50.970Z,2.27
2023-02-03T23:10:20.684Z,3.03
2023-02-03T23:12:48.321Z,2.60
2023-02-03T23:15:17.345Z,2.00
2023-02-03T23:17:45.969Z,2.90
2023-02-03T23:20:15.068Z,2.17
2023-02-03T23:22:42.798Z,3.40
2023-02-03T23:25:11.537Z,3.07
2023-02-03T23:27:38.820Z,1.27
2023-02-03T23:30:07.236Z,2.30
2023-02-03T23:32:34.538Z,1.50
2023-02-03T23:35:20.900Z,1.33
2023-02-03T23:37:48.398Z,2.07
2023-02-03T23:40:15.885Z,2.57
2023-02-03T23:42:43.183Z,1.57
2023-02-03T23:45:12.042Z,1.80
2023-02-03T23:47:40.247Z,1.67
2023-02-03T23:50:09.638Z,1.10
2023-02-03T23:52:36.957Z,1.10
2023-02-03T23:55:06.263Z,1.10
2023-02-03T23:57:33.747Z,1.37
